CWOB

Brevoort Island Airport

Canada
METAR CWOB 240300Z AUTO 35005KT ////SM //// BKN170 OVC230 M18/M21 A2985
Observed Flight Rules
Jan-24 @ 03:00 UTC (21 minutes ago)
Wind Clouds
350° at 5 knots
  • Broken at 17,000' AGL
  • Overcast at 23,000' AGL
Temperatures Readings
Current -18°C / 0°F
Dewpoint -21°C / -6°F
Humidity 78%
Altimeter 29.85" Hg
Pressure 1011 hPa
Elevation 367
METAR CWOB 240300Z AUTO 35005KT ////SM //// BKN170 OVC230 M18/M21 A2985
Observed Flight Rules
Jan-24 @ 03:00 UTC
(21 minutes ago)
Wind
350° at 5 knots
Clouds
  • Broken at 17,000' AGL
  • Overcast at 23,000' AGL
Temperature Dewpoint
-18°C / 0°F -21°C / -6°F
Humidity Altimeter Pressure
78% 29.85" Hg 1011 hPa